Carbondale, IL

3:58 AM CDT on August 29, 2016 (GMT -0500)
Carbondale City Hall | | Change Station

Elev 430 ft 37.73 °N, 89.22 °W | Updated 1 minute ago

Clear
Clear
76.6 °F
Feels Like 77 °F
N
0.0
Wind Variable Wind from ENE
Gusts 3.0 mph

Today
High -- | Low -- °F
--% Chance of Precip.
Yesterday
High -- | Low -- °F
Precip. -- in
Pressure 30.10 in
Visibility 1.5 miles
Clouds Clear
Heat Index 77 °F
Dew Point 74 °F
Humidity 93%
Rainfall 0.00 in
Snow Depth Not available.
6:24 AM 7:29 PM
Waning Crescent, 10% visible
METAR KMDH 290852Z AUTO 26003KT 1 1/2SM BR CLR 22/22 A3011 RMK AO2 SLP191 T02220217 56008
Pressure 30.10 in
Visibility 1.5 miles
Clouds Clear
Heat Index 77 °F
Dew Point 74 °F
Humidity 93%
Rainfall 0.00 in
Snow Depth Not available.
6:24 AM 7:29 PM
Waning Crescent, 10% visible
METAR KMDH 290852Z AUTO 26003KT 1 1/2SM BR CLR 22/22 A3011 RMK AO2 SLP191 T02220217 56008

10-Day Weather Forecast

Almanac

Astronomy

Aug. 29, 2016 Rise Set
Actual Time
Civil Twilight
Nautical Twilight
Astronomical Twilight
Moon
Length of Visible Light
Length of Day
Tomorrow will be .
, % of the Moon is Illuminated

Today's Extremes

State Highs State Lows

Community

WunderPhotos

Upload Photos

1,935,800 photos uploaded!

WunderBlog® & News

Nearby

Air Quality

  Air Quality AQ Index Pollutant
Not available.

Snow Depth

Station Depth Elevation

Earthquake Activity

City Distance Mag. Time & Date
Minimum magnitude displayed is 2.5.

Coastal Water Temperatures

Place Temperature

Stations

Nearby Weather Stations

Station Location Temp. Windchill Dew Point Humidity Wind Precip. Elev Updated Type
                   

Watches & Warnings

There are currently no watches in effect.